Time;durP1;ratioP1;P1;durP2;ratioP2;P2;SDS_P1;SDS_P2;PMS_P1;PMS_P2;Temp;Humidity;BMP_temperature;BMP_pressure;BME280_temperature;BME280_humidity;BME280_pressure;Samples;Min_cycle;Max_cycle;Signal;HPM_P1;HPM_P2
2022/01/22 00:01:52;;;;;;;3.33;0.90;;;23.60;85.70;;;;;;5074319;28;20025;-57
2022/01/22 00:04:20;;;;;;;3.30;1.15;;;23.60;85.00;;;;;;5074256;28;20020;-62
2022/01/22 00:06:49;;;;;;;2.33;1.02;;;23.60;85.60;;;;;;5073193;28;20055;-55
2022/01/22 00:09:17;;;;;;;2.78;0.90;;;23.70;85.40;;;;;;5074284;28;20024;-55
2022/01/22 00:11:52;;;;;;;3.05;0.95;;;23.70;85.30;;;;;;5074385;28;20035;-61
2022/01/22 00:14:27;;;;;;;3.80;1.00;;;23.70;85.20;;;;;;5074025;28;20334;-56
2022/01/22 00:16:57;;;;;;;5.18;1.02;;;23.70;85.30;;;;;;5075583;28;20066;-58
2022/01/22 00:19:26;;;;;;;3.38;1.15;;;23.70;85.10;;;;;;5074145;28;20021;-57
2022/01/22 00:21:54;;;;;;;2.70;0.88;;;23.80;85.10;;;;;;5072113;28;20028;-58
2022/01/22 00:24:22;;;;;;;2.65;0.90;;;23.80;85.30;;;;;;5072518;28;20020;-60
2022/01/22 00:26:49;;;;;;;5.78;1.27;;;23.70;84.70;;;;;;5073952;28;20036;-53
2022/01/22 00:29:17;;;;;;;5.90;1.30;;;23.80;84.80;;;;;;5073931;28;20135;-56
2022/01/22 00:31:45;;;;;;;3.30;1.00;;;23.80;84.90;;;;;;5072623;28;20386;-54
2022/01/22 00:34:13;;;;;;;1.33;0.70;;;23.80;85.40;;;;;;5074265;28;20047;-56
2022/01/22 00:36:40;;;;;;;1.83;0.73;;;23.80;85.50;;;;;;5073049;28;20021;-54
2022/01/22 00:39:08;;;;;;;2.70;0.93;;;23.70;85.70;;;;;;5074398;28;20059;-57
2022/01/22 00:41:36;;;;;;;5.25;1.80;;;23.70;86.00;;;;;;5074620;28;20024;-55
2022/01/22 00:44:07;;;;;;;3.15;1.25;;;23.70;86.40;;;;;;5074129;28;20351;-57
2022/01/22 00:46:34;;;;;;;5.13;0.93;;;23.70;86.70;;;;;;5073517;28;20024;-56
2022/01/22 00:49:02;;;;;;;5.32;1.20;;;23.80;86.40;;;;;;5073798;28;20028;-57
2022/01/22 00:51:30;;;;;;;5.15;1.17;;;23.80;85.90;;;;;;5073478;28;20099;-53
2022/01/22 00:53:57;;;;;;;2.60;0.70;;;23.80;85.50;;;;;;5073529;28;20021;-55
2022/01/22 00:56:25;;;;;;;1.98;0.75;;;23.80;85.80;;;;;;5073809;28;20040;-60
2022/01/22 00:58:52;;;;;;;2.33;0.80;;;23.80;85.40;;;;;;5074014;28;20032;-54
2022/01/22 01:01:20;;;;;;;4.40;2.22;;;23.80;85.00;;;;;;5072140;28;20054;-59
2022/01/22 01:03:48;;;;;;;2.22;1.00;;;23.90;85.20;;;;;;5072387;28;20029;-52
2022/01/22 01:06:15;;;;;;;2.28;0.90;;;23.90;85.20;;;;;;5073307;28;20714;-55
2022/01/22 01:08:43;;;;;;;1.20;0.52;;;23.90;84.40;;;;;;5073612;28;20025;-51
2022/01/22 01:11:13;;;;;;;2.45;0.93;;;24.00;84.50;;;;;;5073213;28;20130;-54
2022/01/22 01:13:45;;;;;;;4.80;0.80;;;24.00;84.00;;;;;;5073668;28;20482;-60
2022/01/22 01:16:43;;;;;;;1.33;0.88;;;24.10;84.70;;;;;;5072957;28;20028;-57
2022/01/22 01:33:08;;;;;;;2.47;1.00;;;24.40;82.40;;;;;;5073000;28;20040;-54
2022/01/22 01:35:38;;;;;;;3.28;0.85;;;24.40;82.40;;;;;;5073065;28;20071;-52
2022/01/22 01:38:07;;;;;;;3.08;1.00;;;24.50;82.60;;;;;;5072706;28;20170;-55
2022/01/22 01:40:39;;;;;;;3.80;1.00;;;24.50;82.80;;;;;;5071613;28;20051;-60
2022/01/22 01:43:15;;;;;;;2.05;1.08;;;24.60;81.70;;;;;;5072785;28;20047;-58
2022/01/22 01:45:42;;;;;;;3.35;0.93;;;24.70;81.70;;;;;;5072272;28;20046;-55
2022/01/22 01:48:16;;;;;;;2.08;0.85;;;24.70;82.20;;;;;;5072059;28;20050;-53
2022/01/22 01:50:44;;;;;;;2.47;0.88;;;24.70;81.70;;;;;;5072424;28;20075;-60
2022/01/22 01:58:30;;;;;;;0.95;0.70;;;24.90;81.60;;;;;;5071936;28;20385;-60
2022/01/22 02:01:03;;;;;;;1.98;0.70;;;24.90;82.00;;;;;;5071691;28;20032;-61
2022/01/22 02:03:31;;;;;;;2.28;1.00;;;24.90;81.70;;;;;;5071773;28;20366;-59
2022/01/22 02:05:58;;;;;;;3.80;0.82;;;24.90;81.30;;;;;;5071122;28;20099;-60
2022/01/22 02:08:27;;;;;;;3.53;1.00;;;24.90;81.50;;;;;;5071785;28;20040;-58
2022/01/22 02:10:59;;;;;;;1.92;0.93;;;25.00;80.20;;;;;;5070224;28;20021;-57
2022/01/22 02:13:42;;;;;;;3.13;0.90;;;24.90;81.70;;;;;;5070448;28;20441;-50
2022/01/22 02:24:54;;;;;;;1.08;0.55;;;24.90;82.10;;;;;;5072493;28;20161;-56
2022/01/22 02:27:22;;;;;;;3.80;0.88;;;25.00;81.80;;;;;;5071560;28;20020;-58
2022/01/22 02:29:50;;;;;;;2.15;0.75;;;25.00;81.80;;;;;;5071584;28;20052;-58
2022/01/22 02:35:06;;;;;;;2.47;0.80;;;24.90;82.10;;;;;;5072102;28;20029;-61
2022/01/22 02:37:38;;;;;;;1.50;0.68;;;25.00;82.20;;;;;;5071442;28;20387;-50
2022/01/22 02:40:14;;;;;;;3.17;1.25;;;25.00;81.90;;;;;;5071296;28;20452;-51
2022/01/22 02:42:45;;;;;;;3.65;0.77;;;25.10;81.30;;;;;;5071223;28;20382;-59
2022/01/22 02:45:17;;;;;;;4.63;0.95;;;25.10;81.40;;;;;;5070352;28;20094;-55
2022/01/22 02:47:45;;;;;;;1.63;0.77;;;25.10;81.20;;;;;;5071190;28;20032;-55
2022/01/22 02:50:16;;;;;;;2.58;0.93;;;25.10;81.40;;;;;;5070093;28;20027;-54
2022/01/22 02:52:44;;;;;;;1.40;0.73;;;25.10;81.90;;;;;;5071348;28;20036;-58
2022/01/22 02:55:13;;;;;;;5.68;0.98;;;25.10;81.10;;;;;;5071366;28;20502;-52
2022/01/22 02:57:43;;;;;;;2.28;0.82;;;25.10;81.00;;;;;;5071533;28;20475;-58
2022/01/22 03:00:14;;;;;;;2.85;1.10;;;25.10;82.20;;;;;;5072699;28;20031;-55
2022/01/22 03:02:41;;;;;;;1.83;0.88;;;25.00;81.80;;;;;;5075405;28;20059;-53
2022/01/22 03:05:09;;;;;;;1.95;0.90;;;25.10;81.10;;;;;;5075597;28;20086;-54
2022/01/22 03:07:40;;;;;;;1.77;0.90;;;25.20;81.80;;;;;;5075402;28;20105;-55
2022/01/22 03:10:09;;;;;;;3.03;1.15;;;25.20;82.10;;;;;;5075254;28;20082;-53
2022/01/22 03:27:18;;;;;;;1.90;0.63;;;25.40;80.80;;;;;;5074969;28;20113;-59
2022/01/22 03:29:05;;;;;;;2.63;1.05;;;25.50;80.40;;;;;;5075134;28;20035;-55
2022/01/22 03:31:33;;;;;;;2.80;0.85;;;25.50;80.20;;;;;;5074954;28;20099;-59
2022/01/22 03:34:01;;;;;;;1.63;0.77;;;25.50;80.60;;;;;;5074277;28;20020;-59
2022/01/22 03:36:33;;;;;;;2.08;0.85;;;25.50;80.60;;;;;;5074523;28;20109;-61
2022/01/22 03:39:04;;;;;;;3.85;0.90;;;25.50;80.70;;;;;;5074295;28;20153;-54
2022/01/22 03:41:31;;;;;;;19.42;1.52;;;25.50;80.60;;;;;;5074591;28;20016;-57
2022/01/22 03:43:59;;;;;;;10.25;2.03;;;25.50;80.00;;;;;;5073845;28;20451;-55
2022/01/22 03:46:26;;;;;;;2.40;0.70;;;25.60;76.90;;;;;;5074287;28;20101;-59
2022/01/22 03:48:54;;;;;;;5.63;1.30;;;25.70;78.60;;;;;;5074456;28;20032;-52
2022/01/22 03:51:21;;;;;;;1.50;0.80;;;25.80;76.40;;;;;;5074298;28;20446;-54
2022/01/22 03:53:49;;;;;;;6.60;1.13;;;25.80;78.60;;;;;;5074320;28;20036;-52
2022/01/22 03:56:16;;;;;;;2.38;0.80;;;25.80;79.60;;;;;;5073048;28;20474;-55
2022/01/22 03:58:45;;;;;;;2.78;0.73;;;25.90;77.80;;;;;;5072948;28;20119;-48
2022/01/22 04:03:52;;;;;;;3.85;0.95;;;25.90;77.90;;;;;;5074742;28;20485;-58
2022/01/22 04:08:55;;;;;;;3.55;0.93;;;25.90;79.30;;;;;;5074031;28;20024;-60
2022/01/22 04:11:22;;;;;;;4.35;1.08;;;26.00;76.40;;;;;;5071354;28;20056;-52
2022/01/22 04:13:58;;;;;;;4.53;1.15;;;26.00;78.40;;;;;;5072163;28;20025;-49
2022/01/22 04:16:27;;;;;;;3.78;1.15;;;26.00;76.30;;;;;;5073791;28;20179;-54
2022/01/22 04:27:13;;;;;;;4.47;0.80;;;26.10;79.30;;;;;;5073531;28;20048;-53
2022/01/22 04:29:41;;;;;;;5.32;1.23;;;26.10;77.70;;;;;;5072892;28;20391;-54
2022/01/22 04:32:09;;;;;;;4.70;0.98;;;26.20;77.50;;;;;;5073079;28;20056;-54
2022/01/22 04:34:36;;;;;;;4.13;1.15;;;26.20;78.90;;;;;;5073432;28;20134;-55
2022/01/22 04:37:04;;;;;;;6.05;1.48;;;26.20;77.90;;;;;;5073331;28;20063;-57
2022/01/22 04:39:31;;;;;;;5.40;1.38;;;26.20;77.40;;;;;;5073210;28;20027;-57
2022/01/22 04:41:59;;;;;;;6.43;1.83;;;26.20;75.50;;;;;;5073274;28;20425;-52
2022/01/22 04:44:31;;;;;;;2.50;0.85;;;26.20;77.40;;;;;;5073215;28;20116;-56
2022/01/22 04:55:13;;;;;;;4.72;1.20;;;26.30;76.60;;;;;;5069651;28;20131;-58
2022/01/22 04:57:46;;;;;;;6.20;1.25;;;26.20;77.80;;;;;;5071646;28;20024;-52
2022/01/22 05:00:17;;;;;;;4.30;1.33;;;26.20;77.80;;;;;;5072727;28;20021;-57
2022/01/22 05:02:44;;;;;;;7.95;1.35;;;26.20;76.20;;;;;;5073421;28;20382;-59
2022/01/22 05:05:12;;;;;;;5.50;1.35;;;26.20;75.70;;;;;;5072892;28;20056;-54
2022/01/22 05:07:40;;;;;;;6.20;1.30;;;26.20;78.90;;;;;;5072481;28;20033;-55
2022/01/22 05:10:08;;;;;;;5.90;1.25;;;26.20;78.20;;;;;;5072702;28;20031;-57
2022/01/22 05:12:36;;;;;;;3.25;1.35;;;26.20;78.90;;;;;;5072480;28;20029;-51
2022/01/22 05:15:05;;;;;;;4.43;1.08;;;26.20;78.90;;;;;;5071573;28;20020;-58
2022/01/22 05:17:36;;;;;;;7.50;1.00;;;26.20;78.00;;;;;;5071327;28;20100;-61
2022/01/22 05:20:11;;;;;;;7.23;1.67;;;26.20;77.70;;;;;;5072622;28;20121;-60
2022/01/22 05:25:52;;;;;;;4.75;1.20;;;26.10;76.40;;;;;;5073310;28;20047;-59
2022/01/22 05:38:30;;;;;;;7.28;1.83;;;26.10;76.40;;;;;;5072656;28;20085;-57
2022/01/22 05:40:57;;;;;;;3.63;0.90;;;26.10;75.80;;;;;;5071973;28;20367;-59
2022/01/22 05:43:25;;;;;;;6.05;1.67;;;26.10;76.00;;;;;;5072145;28;20028;-58
2022/01/22 05:45:52;;;;;;;6.07;1.15;;;26.10;77.00;;;;;;5072040;28;20047;-50
2022/01/22 05:48:20;;;;;;;3.05;1.20;;;26.10;77.40;;;;;;5072551;28;20066;-56
2022/01/22 05:50:58;;;;;;;6.57;1.55;;;26.10;75.10;;;;;;5072579;28;20020;-49
2022/01/22 05:53:38;;;;;;;4.95;1.40;;;26.10;75.20;;;;;;5072363;28;20488;-54
2022/01/22 06:01:21;;;;;;;2.60;0.70;;;26.10;74.60;;;;;;5072312;28;20043;-51
2022/01/22 06:03:48;;;;;;;9.00;1.15;;;26.20;75.80;;;;;;5071792;28;20025;-53
2022/01/22 06:06:16;;;;;;;3.72;1.13;;;26.20;74.70;;;;;;5072116;28;20077;-51
2022/01/22 06:08:51;;;;;;;4.65;1.30;;;26.20;76.10;;;;;;5072668;28;20044;-63
2022/01/22 06:11:24;;;;;;;6.78;1.60;;;26.10;74.50;;;;;;5071961;28;20107;-66
2022/01/22 06:13:52;;;;;;;9.48;1.63;;;26.20;75.20;;;;;;5071337;28;20489;-60
2022/01/22 06:16:24;;;;;;;7.07;2.30;;;26.10;76.80;;;;;;5071625;28;20031;-62
2022/01/22 06:18:52;;;;;;;9.43;1.40;;;26.10;75.80;;;;;;5071847;28;20065;-63
2022/01/22 06:21:19;;;;;;;4.68;1.15;;;26.10;76.90;;;;;;5072185;28;20020;-60
2022/01/22 06:23:50;;;;;;;6.45;1.30;;;26.10;76.00;;;;;;5071895;28;20494;-64
2022/01/22 06:26:17;;;;;;;8.02;1.15;;;26.00;72.20;;;;;;5072194;28;20116;-60
2022/01/22 06:28:45;;;;;;;7.35;1.60;;;26.00;74.90;;;;;;5071885;28;20028;-64
2022/01/22 06:31:13;;;;;;;14.48;2.35;;;26.00;72.10;;;;;;5071879;28;20191;-65
2022/01/22 06:33:40;;;;;;;7.45;1.38;;;26.00;75.60;;;;;;5071907;28;20056;-63
2022/01/22 06:36:08;;;;;;;4.60;1.33;;;26.00;74.90;;;;;;5071223;28;20021;-62
2022/01/22 06:38:35;;;;;;;5.97;1.40;;;26.00;75.40;;;;;;5071558;28;20182;-58
2022/01/22 06:43:48;;;;;;;8.55;1.50;;;25.90;73.20;;;;;;5072302;28;20078;-62
2022/01/22 06:46:16;;;;;;;4.38;1.10;;;25.90;73.40;;;;;;5071634;28;20025;-65
2022/01/22 06:48:43;;;;;;;10.02;1.40;;;25.80;74.30;;;;;;5072384;28;20090;-60
2022/01/22 06:51:10;;;;;;;4.82;1.40;;;25.80;73.70;;;;;;5072393;28;20478;-61
2022/01/22 06:53:40;;;;;;;6.88;1.55;;;25.80;74.60;;;;;;5071988;28;20080;-62
2022/01/22 06:56:10;;;;;;;4.53;1.20;;;25.80;74.40;;;;;;5071722;28;20063;-62
2022/01/22 06:58:37;;;;;;;10.25;2.03;;;25.80;75.20;;;;;;5071634;28;20119;-59
2022/01/22 07:01:04;;;;;;;4.43;1.25;;;25.60;73.00;;;;;;5070596;28;20054;-57
2022/01/22 07:03:32;;;;;;;5.75;1.48;;;25.60;74.70;;;;;;5071838;28;20025;-62
2022/01/22 07:05:59;;;;;;;8.02;1.52;;;25.60;74.80;;;;;;5071178;28;20036;-63
2022/01/22 07:08:27;;;;;;;10.13;1.92;;;25.60;75.30;;;;;;5071657;28;20028;-60
2022/01/22 07:10:54;;;;;;;7.18;1.20;;;25.50;73.00;;;;;;5070496;28;20304;-62
2022/01/22 07:13:21;;;;;;;9.90;2.15;;;25.50;73.30;;;;;;5071475;28;20040;-63
2022/01/22 07:15:49;;;;;;;6.90;1.50;;;25.40;74.40;;;;;;5071726;28;20054;-63
2022/01/22 07:18:16;;;;;;;7.15;1.52;;;25.40;73.70;;;;;;5071175;28;20432;-57
2022/01/22 07:20:45;;;;;;;8.57;2.05;;;25.30;75.10;;;;;;5071513;28;20036;-60
2022/01/22 07:25:49;;;;;;;7.45;1.20;;;25.40;75.10;;;;;;5071376;28;20024;-57
2022/01/22 07:28:17;;;;;;;3.95;1.45;;;25.30;75.10;;;;;;5069218;28;20143;-59
2022/01/22 07:30:46;;;;;;;8.40;1.77;;;25.30;75.30;;;;;;5072269;28;20060;-58
2022/01/22 07:33:14;;;;;;;6.78;2.22;;;25.30;75.60;;;;;;5072784;28;20031;-55
2022/01/22 07:35:42;;;;;;;3.35;1.33;;;25.30;75.70;;;;;;5071656;28;20036;-58
2022/01/22 07:38:10;;;;;;;4.95;1.00;;;25.30;75.60;;;;;;5071681;28;20051;-60
2022/01/22 07:40:38;;;;;;;7.35;1.30;;;25.30;76.20;;;;;;5071857;28;20413;-61
2022/01/22 07:43:05;;;;;;;3.72;1.00;;;25.20;76.20;;;;;;5071531;28;20444;-60
2022/01/22 07:45:33;;;;;;;2.90;1.13;;;25.20;76.30;;;;;;5072004;28;20024;-54
2022/01/22 07:48:01;;;;;;;10.50;1.48;;;25.20;76.40;;;;;;5074483;28;20040;-55
2022/01/22 07:50:28;;;;;;;7.55;1.73;;;25.20;76.60;;;;;;5075011;28;20029;-60
2022/01/22 07:52:57;;;;;;;4.50;1.58;;;25.20;76.90;;;;;;5074651;28;20035;-59
2022/01/22 07:55:25;;;;;;;3.88;1.27;;;25.20;77.10;;;;;;5074813;28;20116;-57
2022/01/22 07:57:52;;;;;;;5.28;1.40;;;25.20;77.30;;;;;;5074401;28;20078;-57
2022/01/22 08:00:20;;;;;;;5.53;1.25;;;25.10;77.10;;;;;;5074776;28;20056;-60
2022/01/22 08:02:47;;;;;;;3.83;1.00;;;25.20;77.60;;;;;;5073354;28;20024;-59
2022/01/22 08:05:15;;;;;;;2.75;1.20;;;25.10;77.50;;;;;;5073122;28;20020;-59
2022/01/22 08:07:45;;;;;;;3.83;1.38;;;25.10;77.40;;;;;;5074426;28;20033;-49
2022/01/22 08:10:14;;;;;;;2.78;0.88;;;25.10;78.40;;;;;;5073164;28;20021;-57
2022/01/22 08:12:42;;;;;;;4.47;1.25;;;25.10;77.70;;;;;;5074473;28;20521;-58
2022/01/22 08:15:12;;;;;;;8.75;1.70;;;25.00;77.90;;;;;;5074092;28;20048;-58
2022/01/22 08:17:39;;;;;;;4.53;1.08;;;25.00;78.40;;;;;;5072851;28;20025;-55
2022/01/22 08:20:08;;;;;;;4.03;1.83;;;25.00;78.40;;;;;;5073571;28;20036;-60
2022/01/22 08:22:35;;;;;;;8.13;1.52;;;24.90;78.40;;;;;;5073898;28;20035;-59
2022/01/22 08:25:06;;;;;;;4.43;1.10;;;24.90;78.70;;;;;;5074064;28;20474;-60
2022/01/22 08:27:40;;;;;;;3.75;1.08;;;24.90;79.00;;;;;;5073722;28;20029;-53
2022/01/22 08:30:10;;;;;;;4.57;1.33;;;24.90;79.30;;;;;;5073564;28;20017;-53
2022/01/22 08:37:54;;;;;;;5.47;1.27;;;24.80;79.40;;;;;;5073464;28;20098;-51
2022/01/22 08:40:21;;;;;;;2.30;0.70;;;24.80;79.70;;;;;;5073504;28;20584;-46
2022/01/22 08:42:50;;;;;;;4.05;1.58;;;24.80;79.70;;;;;;5073244;28;20556;-57
2022/01/22 08:45:17;;;;;;;4.68;1.52;;;24.70;79.90;;;;;;5073433;28;20039;-54
2022/01/22 08:47:45;;;;;;;3.83;1.17;;;24.70;80.00;;;;;;5071936;28;20032;-56
2022/01/22 08:50:12;;;;;;;3.05;1.17;;;24.70;80.00;;;;;;5071741;28;20164;-54
2022/01/22 08:52:40;;;;;;;1.88;0.90;;;24.70;80.20;;;;;;5073061;28;20024;-57
2022/01/22 08:55:08;;;;;;;4.80;1.65;;;24.60;80.20;;;;;;5073194;28;20048;-61
2022/01/22 08:57:35;;;;;;;2.63;0.93;;;24.60;80.30;;;;;;5072643;28;20454;-58
2022/01/22 09:00:06;;;;;;;2.53;0.90;;;24.60;80.50;;;;;;5073272;28;20505;-54
2022/01/22 09:02:35;;;;;;;3.45;0.75;;;24.60;80.60;;;;;;5073837;28;20058;-60
2022/01/22 09:05:02;;;;;;;3.25;1.33;;;24.50;80.60;;;;;;5073333;28;20024;-59
2022/01/22 09:07:30;;;;;;;2.95;1.15;;;24.50;80.80;;;;;;5072094;28;20066;-59
2022/01/22 09:09:57;;;;;;;2.78;1.00;;;24.50;80.90;;;;;;5071538;28;20021;-60
2022/01/22 09:12:25;;;;;;;5.25;1.23;;;24.50;81.10;;;;;;5073048;28;20033;-57
2022/01/22 09:14:52;;;;;;;3.28;1.42;;;24.40;81.20;;;;;;5073180;28;20029;-59
2022/01/22 09:17:20;;;;;;;4.18;0.98;;;24.40;81.30;;;;;;5073175;28;20036;-61
2022/01/22 09:19:47;;;;;;;2.67;1.20;;;24.40;81.50;;;;;;5072823;28;20017;-57
2022/01/22 09:22:15;;;;;;;2.38;0.95;;;24.30;81.60;;;;;;5072606;28;20443;-51
2022/01/22 09:24:42;;;;;;;3.47;1.05;;;24.30;81.60;;;;;;5073249;28;20485;-62
2022/01/22 09:27:12;;;;;;;6.15;1.30;;;24.30;81.80;;;;;;5072650;28;20124;-56
2022/01/22 09:29:39;;;;;;;3.20;1.25;;;24.30;81.90;;;;;;5072966;28;20036;-55
2022/01/22 09:32:07;;;;;;;3.25;0.98;;;24.30;82.00;;;;;;5072891;28;20463;-58
2022/01/22 09:34:34;;;;;;;3.15;0.80;;;24.20;82.00;;;;;;5073473;28;20035;-58
2022/01/22 09:37:02;;;;;;;3.42;1.15;;;24.20;82.10;;;;;;5072263;28;20374;-50
2022/01/22 09:39:30;;;;;;;3.13;1.40;;;24.20;82.10;;;;;;5072797;28;20024;-61
2022/01/22 09:41:58;;;;;;;4.88;1.00;;;24.20;82.20;;;;;;5072454;28;20435;-60
2022/01/22 09:44:26;;;;;;;2.15;0.80;;;24.20;82.30;;;;;;5072589;28;20052;-53
2022/01/22 09:46:54;;;;;;;2.28;0.93;;;24.10;82.30;;;;;;5072406;28;20383;-60
2022/01/22 09:49:22;;;;;;;3.92;1.05;;;24.10;82.30;;;;;;5072566;28;20040;-62
2022/01/22 09:51:49;;;;;;;2.72;1.25;;;24.10;82.30;;;;;;5072735;28;20471;-61
2022/01/22 09:54:16;;;;;;;3.10;1.13;;;24.10;82.30;;;;;;5072535;28;20368;-60
2022/01/22 09:56:46;;;;;;;5.53;1.45;;;24.10;82.40;;;;;;5072245;28;20519;-50
2022/01/22 09:59:13;;;;;;;3.20;1.27;;;24.10;82.40;;;;;;5072562;28;20390;-58
2022/01/22 10:01:41;;;;;;;2.88;1.10;;;24.10;82.50;;;;;;5072942;28;20338;-59
2022/01/22 10:04:10;;;;;;;4.53;0.93;;;24.00;82.40;;;;;;5072292;28;20048;-60
2022/01/22 10:07:14;;;;;;;2.35;1.10;;;24.00;82.50;;;;;;5072898;28;20032;-62
2022/01/22 10:09:59;;;;;;;3.28;1.00;;;24.00;82.60;;;;;;5065537;28;20442;-55
2022/01/22 10:12:29;;;;;;;2.53;0.90;;;23.90;82.50;;;;;;5073529;28;20102;-57
2022/01/22 10:15:11;;;;;;;3.65;1.08;;;24.00;82.70;;;;;;5073656;28;20486;-57
2022/01/22 10:17:57;;;;;;;4.07;1.42;;;24.00;82.80;;;;;;5072777;28;20467;-62
2022/01/22 10:20:25;;;;;;;2.75;1.00;;;23.90;82.80;;;;;;5071708;28;20025;-58
2022/01/22 10:23:02;;;;;;;2.50;0.73;;;23.90;82.80;;;;;;5071065;28;20032;-57
2022/01/22 10:25:44;;;;;;;6.07;1.30;;;23.90;82.90;;;;;;5073045;28;20016;-56
2022/01/22 10:28:15;;;;;;;;;;;23.90;82.90;;;;;;5072293;28;20119;-59
2022/01/22 10:30:45;;;;;;;2.60;0.98;;;23.90;83.10;;;;;;5072216;28;19905;-60
2022/01/22 10:35:50;;;;;;;3.90;1.20;;;23.90;83.20;;;;;;5072741;28;20119;-57
2022/01/22 10:38:18;;;;;;;3.53;1.23;;;23.90;83.10;;;;;;5072792;28;20024;-52
2022/01/22 10:40:48;;;;;;;2.90;1.10;;;23.90;83.30;;;;;;5072759;28;20028;-59
2022/01/22 10:43:30;;;;;;;3.90;1.23;;;23.80;83.30;;;;;;5072840;28;20070;-60
2022/01/22 10:46:07;;;;;;;;;;;23.80;83.30;;;;;;5072666;28;20549;-58
2022/01/22 10:48:35;;;;;;;3.30;1.15;;;23.80;83.20;;;;;;5072379;28;19908;-63
2022/01/22 10:51:05;;;;;;;2.97;0.98;;;23.80;83.30;;;;;;5072680;28;20179;-59
2022/01/22 10:53:43;;;;;;;3.08;1.08;;;23.80;83.40;;;;;;5072139;28;20519;-60
2022/01/22 10:56:17;;;;;;;2.20;1.00;;;23.80;83.40;;;;;;5073177;28;20086;-59
2022/01/22 10:59:07;;;;;;;3.55;0.98;;;23.80;83.40;;;;;;5071027;28;20474;-64
2022/01/22 11:01:53;;;;;;;2.30;0.80;;;23.80;83.40;;;;;;5072935;28;20465;-63
2022/01/22 11:04:40;;;;;;;2.83;1.25;;;23.70;83.40;;;;;;5072375;28;20102;-52
2022/01/22 11:07:10;;;;;;;3.72;1.60;;;23.80;83.40;;;;;;5072156;28;20051;-60
2022/01/22 11:09:38;;;;;;;3.40;1.30;;;23.70;83.40;;;;;;5072440;28;20032;-62
2022/01/22 11:12:06;;;;;;;2.22;0.75;;;23.70;83.40;;;;;;5071573;28;20021;-60
2022/01/22 11:14:37;;;;;;;2.92;1.00;;;23.80;83.50;;;;;;5071817;28;20020;-57
2022/01/22 11:17:06;;;;;;;1.80;0.85;;;23.70;83.40;;;;;;5072149;28;20554;-59
2022/01/22 11:19:37;;;;;;;3.80;0.88;;;23.70;83.40;;;;;;5072582;28;20029;-62
2022/01/22 11:22:09;;;;;;;2.78;1.00;;;23.70;83.50;;;;;;5074967;28;20024;-62
2022/01/22 11:24:42;;;;;;;3.45;1.23;;;23.70;83.50;;;;;;5076235;28;20482;-55
2022/01/22 11:27:13;;;;;;;1.77;0.80;;;23.70;83.50;;;;;;5075453;28;20486;-63
2022/01/22 11:29:54;;;;;;;2.08;1.10;;;23.70;83.50;;;;;;5074677;28;20027;-62
2022/01/22 11:32:30;;;;;;;2.97;1.15;;;23.70;83.40;;;;;;5074317;28;20024;-61
2022/01/22 11:35:01;;;;;;;3.25;1.15;;;23.70;83.50;;;;;;5076242;28;20021;-61
2022/01/22 11:37:51;;;;;;;2.88;1.05;;;23.70;83.50;;;;;;5075748;28;20025;-60
2022/01/22 11:40:27;;;;;;;5.75;1.20;;;23.70;83.50;;;;;;5074449;28;20035;-58
2022/01/22 11:45:54;;;;;;;2.60;1.10;;;23.70;83.60;;;;;;5075876;28;20105;-60
2022/01/22 11:48:28;;;;;;;2.00;0.80;;;23.70;83.60;;;;;;5075783;28;20084;-59
2022/01/22 11:51:16;;;;;;;2.33;0.80;;;23.70;83.60;;;;;;5075838;28;20224;-58
2022/01/22 11:53:55;;;;;;;2.50;0.85;;;23.60;83.60;;;;;;5075643;28;20060;-59
2022/01/22 11:56:26;;;;;;;2.10;0.90;;;23.60;83.70;;;;;;5075571;28;20135;-55
2022/01/22 11:58:58;;;;;;;1.92;1.10;;;23.60;83.70;;;;;;5075234;28;20025;-59
2022/01/22 12:01:54;;;;;;;2.88;1.02;;;23.60;83.70;;;;;;5076060;28;20029;-57
2022/01/22 12:04:23;;;;;;;3.30;1.00;;;23.60;83.70;;;;;;5076242;28;20439;-59
2022/01/22 12:07:03;;;;;;;2.75;1.10;;;23.60;83.80;;;;;;5075744;28;20028;-53
2022/01/22 12:15:41;;;;;;;1.88;0.90;;;23.60;83.90;;;;;;5074971;28;20039;-56
2022/01/22 12:18:16;;;;;;;1.90;0.85;;;23.60;83.80;;;;;;5075220;28;20088;-62
2022/01/22 12:23:19;;;;;;;1.98;0.93;;;23.60;83.90;;;;;;5073776;28;20411;-61
2022/01/22 12:25:46;;;;;;;2.90;0.90;;;23.60;83.80;;;;;;5074804;28;20052;-61
2022/01/22 12:28:38;;;;;;;2.25;1.02;;;23.60;83.70;;;;;;5074397;28;20033;-59
2022/01/22 12:31:17;;;;;;;2.03;0.88;;;23.60;83.70;;;;;;5074490;28;20024;-65
2022/01/22 12:33:53;;;;;;;2.03;0.95;;;23.60;83.70;;;;;;5073300;28;20028;-62
2022/01/22 12:36:40;;;;;;;2.55;1.08;;;23.60;83.70;;;;;;5074721;28;20367;-58
2022/01/22 12:39:15;;;;;;;2.45;1.13;;;23.60;83.80;;;;;;5074294;28;20028;-56
2022/01/22 12:41:55;;;;;;;1.98;0.93;;;23.50;83.80;;;;;;5074015;28;20032;-48
2022/01/22 12:44:32;;;;;;;2.08;0.90;;;23.50;83.70;;;;;;5075089;28;20370;-60
2022/01/22 12:47:03;;;;;;;2.22;1.00;;;23.50;83.80;;;;;;5074816;28;20108;-60
2022/01/22 12:49:30;;;;;;;1.73;0.65;;;23.50;83.80;;;;;;5074471;28;20025;-60
2022/01/22 12:52:01;;;;;;;4.47;0.98;;;23.50;83.80;;;;;;5074520;28;20025;-61
2022/01/22 12:54:41;;;;;;;2.28;0.98;;;23.50;83.80;;;;;;5074085;28;20513;-59
2022/01/22 12:57:12;;;;;;;2.42;0.90;;;23.50;83.80;;;;;;5073880;28;20033;-55
2022/01/22 12:59:54;;;;;;;1.97;0.63;;;23.50;83.80;;;;;;5074647;28;20040;-62
2022/01/22 13:02:45;;;;;;;2.55;1.10;;;23.50;83.90;;;;;;5074737;28;20272;-59
2022/01/22 13:05:15;;;;;;;1.83;0.80;;;23.50;83.90;;;;;;5074092;28;20027;-60
2022/01/22 13:07:54;;;;;;;2.92;0.80;;;23.50;83.90;;;;;;5073501;28;20048;-61
2022/01/22 13:10:32;;;;;;;1.92;0.85;;;23.40;83.90;;;;;;5074053;28;20024;-59
2022/01/22 13:13:01;;;;;;;3.38;1.08;;;23.50;83.90;;;;;;5074178;28;20030;-62
2022/01/22 13:15:30;;;;;;;2.72;0.95;;;23.50;84.00;;;;;;5072315;28;20060;-60
2022/01/22 13:18:03;;;;;;;1.60;0.75;;;23.50;84.10;;;;;;5073801;28;20053;-61
2022/01/22 13:20:34;;;;;;;2.15;0.90;;;23.50;84.10;;;;;;5074002;28;20028;-59
2022/01/22 13:23:19;;;;;;;3.40;0.88;;;23.40;84.20;;;;;;5074490;28;20049;-60
2022/01/22 13:25:46;;;;;;;2.28;0.70;;;23.40;84.20;;;;;;5074158;28;20021;-59
2022/01/22 13:28:16;;;;;;;2.80;1.05;;;23.40;84.20;;;;;;5073104;28;20514;-59
2022/01/22 13:30:57;;;;;;;5.00;1.30;;;23.40;84.20;;;;;;5074289;28;20490;-62
2022/01/22 13:49:52;;;;;;;2.15;0.70;;;23.30;84.60;;;;;;5074216;28;20086;-56
2022/01/22 13:52:22;;;;;;;2.05;0.90;;;23.30;84.80;;;;;;5072728;28;20063;-59
2022/01/22 13:54:52;;;;;;;1.67;0.55;;;23.30;84.80;;;;;;5072497;28;20044;-60
2022/01/22 13:57:23;;;;;;;3.83;1.02;;;23.30;84.80;;;;;;5073025;28;20451;-60
2022/01/22 13:59:53;;;;;;;2.55;0.80;;;23.30;84.90;;;;;;5072450;28;20550;-58
2022/01/22 14:03:08;;;;;;;3.13;1.10;;;23.30;84.90;;;;;;5072993;28;20031;-61
2022/01/22 14:05:48;;;;;;;3.15;0.90;;;23.30;85.00;;;;;;5073208;28;20036;-58
2022/01/22 14:08:17;;;;;;;1.75;0.85;;;23.30;85.10;;;;;;5073454;28;20386;-62
2022/01/22 14:10:45;;;;;;;3.08;0.85;;;23.30;85.10;;;;;;5073040;28;20568;-61
2022/01/22 14:13:13;;;;;;;2.85;0.90;;;23.20;85.00;;;;;;5072919;28;20478;-59
2022/01/22 14:15:45;;;;;;;3.92;0.80;;;23.20;85.10;;;;;;5072446;28;20033;-57
2022/01/22 14:18:22;;;;;;;2.78;0.65;;;23.20;85.10;;;;;;5072387;28;20064;-56
2022/01/22 14:21:09;;;;;;;1.35;0.80;;;23.20;85.10;;;;;;5073011;28;20029;-59
2022/01/22 14:23:39;;;;;;;1.30;0.65;;;23.20;85.10;;;;;;5072672;28;20028;-59
2022/01/22 14:26:10;;;;;;;3.05;0.98;;;23.20;85.20;;;;;;5071839;28;20013;-59
2022/01/22 14:28:49;;;;;;;0.93;0.70;;;23.20;85.20;;;;;;5072439;28;20032;-56
2022/01/22 14:31:19;;;;;;;2.70;0.70;;;23.20;85.20;;;;;;5073019;28;20033;-62
2022/01/22 14:33:47;;;;;;;1.83;0.75;;;23.20;85.20;;;;;;5072588;28;20470;-60
2022/01/22 14:36:20;;;;;;;1.60;0.90;;;23.20;85.40;;;;;;5072123;28;20467;-60
2022/01/22 14:46:55;;;;;;;1.27;0.55;;;23.10;85.60;;;;;;5072657;28;20037;-57
2022/01/22 14:49:41;;;;;;;1.75;0.80;;;23.10;85.70;;;;;;5072693;28;20039;-61
2022/01/22 14:52:09;;;;;;;3.17;1.17;;;23.10;85.80;;;;;;5072561;28;20043;-56
2022/01/22 14:54:42;;;;;;;1.67;0.80;;;23.10;85.90;;;;;;5072652;28;20051;-60
2022/01/22 14:57:11;;;;;;;2.70;0.90;;;23.10;85.90;;;;;;5075114;28;20036;-51
2022/01/22 14:59:42;;;;;;;2.15;0.60;;;23.10;86.00;;;;;;5076125;28;20474;-57
2022/01/22 15:02:10;;;;;;;0.70;0.50;;;23.00;86.00;;;;;;5076136;28;20078;-60
2022/01/22 15:04:39;;;;;;;2.10;0.90;;;23.00;86.10;;;;;;5076681;28;20036;-58
2022/01/22 15:07:09;;;;;;;1.27;0.80;;;23.00;86.10;;;;;;5076494;28;20074;-62
2022/01/22 15:09:37;;;;;;;3.50;0.73;;;23.00;86.20;;;;;;5074723;28;20047;-60
2022/01/22 15:12:07;;;;;;;2.15;0.68;;;23.00;86.20;;;;;;5075829;28;20028;-55
2022/01/22 15:14:36;;;;;;;1.90;0.50;;;23.00;86.30;;;;;;5076259;28;20032;-55
2022/01/22 15:19:40;;;;;;;1.95;0.57;;;23.00;86.30;;;;;;5076116;28;20024;-57
2022/01/22 15:22:10;;;;;;;2.83;0.73;;;23.00;86.40;;;;;;5075928;28;20024;-59
2022/01/22 15:24:39;;;;;;;2.05;0.70;;;22.90;86.50;;;;;;5075693;28;20032;-58